M I D A S
Marine Information and Data Acquisition System
Tripno 1698 of the Zeeleeuw from 2009-05-25 11:32:49 to 2009-05-25 13:15:00
Back to CruiseResearch ActivitiesStationsMapUnderway DataData graphs

EquipmentUnitsComment
TimeDGPSUTC
LatitudeDGPSDM.mWGS84
LongitudeDGPSDM.mWGS84
TemperatureSBE03/SBE38deg celciusITS90
ConductivitySBE21S/mITS90
SalinitySBE21 Practical Salinity Units
ChlorophylAChelsea fluorimeterg/lCalibrated in Aceton
Missing or incorrect values are displayed as -999
Sea surface data collected by the RV Zeeleeuw from 2009-05-25 07:24:38 to 2009-05-25 13:27:20
Time Latitude Longitude Temperature Conductivity Salinity ChlorophylA
2009-05-25 07:25:43 51°13.673 2°55.92 -999 0.02317 0.123179 -0.7568
2009-05-25 07:26:43 51°13.693 2°55.862 -999 0.02317 0.123191 -0.7568
2009-05-25 07:27:43 51°13.702 2°55.79 -999 0.02317 0.123196 -0.7568
2009-05-25 07:28:42 51°13.706 2°55.739 -999 0.02317 0.123212 -0.7568
2009-05-25 07:29:40 51°13.713 2°55.75 -999 0.02317 0.123224 -0.7568
2009-05-25 07:30:40 51°13.71 2°55.74 -999 0.02317 0.123224 -0.7568
2009-05-25 07:31:39 51°13.758 2°55.702 -999 0.02317 0.123239 -0.7568
2009-05-25 07:32:39 51°13.843 2°55.627 -999 0.02317 0.123241 -0.7568
2009-05-25 07:33:39 51°13.942 2°55.553 -999 0.02317 0.123251 -0.791624
2009-05-25 07:34:39 51°14.055 2°55.467 -999 0.02317 0.123255 -0.7568
2009-05-25 07:35:39 51°14.178 2°55.37 -999 0.02317 0.123245 -0.7568
2009-05-25 07:36:39 51°14.284 2°55.225 -999 0.02317 0.123257 -0.791624
2009-05-25 07:37:39 51°14.364 2°55.033 -999 0.02317 0.123259 -0.7568
2009-05-25 07:38:39 51°14.433 2°54.818 -999 0.02317 0.123303 -0.7568
2009-05-25 07:39:39 51°14.519 2°54.591 -999 0.02317 0.123299 -0.791624
2009-05-25 07:40:39 51°14.585 2°54.333 -999 0.02317 0.123301 -0.7568
2009-05-25 07:41:39 51°14.64 2°54.064 -999 0.02317 0.123313 -0.7568
2009-05-25 07:42:39 51°14.676 2°53.756 -999 0.02317 0.123332 -0.7568
2009-05-25 07:43:39 51°14.711 2°53.435 -999 0.02317 0.123365 -0.7568
2009-05-25 07:44:39 51°14.748 2°53.112 -999 0.02317 0.123385 -0.7568
2009-05-25 07:45:39 51°14.79 2°52.787 -999 0.02317 0.123418 -0.7568
2009-05-25 07:46:40 51°14.834 2°52.457 -999 0.023273 0.123983 -0.7568
2009-05-25 07:47:39 51°14.878 2°52.138 -999 0.02317 0.123482 -0.7568
2009-05-25 07:48:39 51°14.923 2°51.812 -999 0.02317 0.123523 -0.7568
2009-05-25 07:49:39 51°14.931 2°51.473 -999 0.023273 0.124109 -0.7568
2009-05-25 07:50:39 51°14.914 2°51.129 -999 0.023273 0.124192 -0.7568
2009-05-25 07:51:39 51°14.899 2°50.916 -999 0.023376 0.124773 -0.7568
2009-05-25 07:52:39 51°14.893 2°50.821 -999 0.023479 0.12539 -0.7568
2009-05-25 07:53:40 51°14.89 2°50.744 -999 0.023479 0.125428 -0.7568
2009-05-25 07:54:39 51°14.899 2°50.681 -999 0.023479 0.125464 -0.7568
2009-05-25 07:55:39 51°14.928 2°50.631 -999 0.023582 0.12605 -0.7568
2009-05-25 07:56:39 51°14.968 2°50.609 -999 0.023479 0.125518 -0.7568
2009-05-25 07:57:39 51°14.993 2°50.622 -999 0.023479 0.125532 -0.7568
2009-05-25 07:58:39 51°15.003 2°50.654 -999 0.023582 0.126106 -0.7568
2009-05-25 07:59:39 51°15.008 2°50.703 -999 0.023787 0.127221 -0.7568
2009-05-25 08:00:39 51°15.007 2°50.763 -999 0.023684 0.126688 -0.7568
2009-05-25 08:01:39 51°14.993 2°50.829 -999 0.023684 0.126708 -0.7568
2009-05-25 08:02:39 51°14.962 2°50.892 -999 0.032123 0.172268 -0.7568
2009-05-25 08:03:39 51°14.915 2°50.945 -999 0.02636 0.141089 -0.7568
2009-05-25 08:04:40 51°14.846 2°50.964 -999 0.02564 0.137224 -0.7568
2009-05-25 08:05:39 51°14.775 2°50.937 -999 0.025228 0.134991 -0.7568
2009-05-25 08:06:39 51°14.709 2°50.881 -999 0.024919 0.133329 -0.7568
2009-05-25 08:07:39 51°14.654 2°50.806 -999 0.024714 0.132247 -0.7568
2009-05-25 08:08:39 51°14.608 2°50.719 -999 0.024611 0.131707 -0.7568
2009-05-25 08:09:40 51°14.565 2°50.626 -999 0.024508 0.131181 -0.7568
2009-05-25 08:10:39 51°14.529 2°50.534 -999 0.024405 0.13067 -0.7568
2009-05-25 08:11:39 51°14.498 2°50.442 -999 0.030373 0.162825 -0.7568
2009-05-25 08:12:39 51°14.466 2°50.351 -999 0.030682 0.164521 -0.7568
2009-05-25 08:13:39 51°14.435 2°50.26 -999 0.029241 0.156728 -0.7568
2009-05-25 08:14:39 51°14.402 2°50.169 -999 0.025228 0.135137 -0.7568
2009-05-25 08:15:39 51°14.37 2°50.077 -999 0.029447 0.157877 -0.7568
2009-05-25 08:16:39 51°14.338 2°49.984 -999 0.030065 0.161234 -0.7568
2009-05-25 08:17:39 51°14.305 2°49.891 -999 0.029653 0.159 -0.721976
2009-05-25 08:18:40 51°14.272 2°49.797 -999 0.028933 0.155057 -0.7568
2009-05-25 08:19:39 51°14.24 2°49.705 -999 0.028933 0.155057 -0.7568
2009-05-25 08:20:40 51°14.206 2°49.611 -999 0.027595 0.147877 -0.7568
2009-05-25 08:21:39 51°14.173 2°49.52 -999 0.025125 0.1347 -0.7568
2009-05-25 08:22:39 51°14.139 2°49.428 -999 0.027698 0.148513 -0.7568
2009-05-25 08:23:39 51°14.106 2°49.337 -999 0.030785 0.165334 -0.7568
2009-05-25 08:24:39 51°14.073 2°49.247 -999 0.028521 0.153187 -0.7568
2009-05-25 08:25:39 51°14.04 2°49.157 -999 0.027698 0.1488 -0.7568
2009-05-25 08:26:39 51°14.006 2°49.07 -999 0.028418 0.152714 -0.7568
2009-05-25 08:27:40 51°13.971 2°48.982 -999 0.027698 0.148795 -0.7568
2009-05-25 08:28:39 51°13.94 2°48.899 -999 0.027286 0.146598 -0.7568
2009-05-25 08:29:39 51°13.916 2°48.814 -999 0.027286 0.146617 -0.7568
2009-05-25 08:30:39 51°13.904 2°48.729 -999 0.027698 0.148861 -0.721976
2009-05-25 08:31:39 51°13.898 2°48.652 -999 0.026977 0.144964 -0.721976
2009-05-25 08:32:39 51°13.892 2°48.586 -999 0.027389 0.147201 -0.687152
2009-05-25 08:33:39 51°13.883 2°48.529 -999 0.027286 0.146648 -0.652328
2009-05-25 08:34:40 51°13.875 2°48.479 -999 0.026669 0.14334 -0.652328
2009-05-25 08:35:39 51°13.865 2°48.437 -999 0.026463 0.142224 -0.617504
2009-05-25 08:36:39 51°13.856 2°48.401 -999 0.026669 0.143343 -0.58268
2009-05-25 08:37:39 51°13.845 2°48.369 -999 0.026566 0.14279 -0.58268
2009-05-25 08:38:40 51°13.833 2°48.342 -999 0.026257 0.141146 -0.58268
2009-05-25 08:39:39 51°13.821 2°48.318 -999 0.026257 0.141127 -0.547855
2009-05-25 08:40:39 51°13.807 2°48.295 -999 0.02636 0.141686 -0.547855
2009-05-25 08:41:40 51°13.791 2°48.272 -999 0.026566 0.14283 -0.513031
2009-05-25 08:42:39 51°13.775 2°48.249 -999 0.026463 0.142283 -0.513031
2009-05-25 08:43:39 51°13.758 2°48.226 -999 0.026257 0.141218 -0.513031
2009-05-25 08:44:39 51°13.74 2°48.204 -999 0.026669 0.143456 -0.513031
2009-05-25 08:45:39 51°13.721 2°48.183 -999 0.026154 0.140705 -0.513031
2009-05-25 08:46:39 51°13.702 2°48.161 -999 0.026566 0.142929 -0.478207
2009-05-25 08:47:40 51°13.682 2°48.138 -999 0.026051 0.140178 -0.478207
2009-05-25 08:48:39 51°13.662 2°48.118 -999 0.029036 0.156317 -0.478207
2009-05-25 08:49:39 51°13.642 2°48.098 -999 0.02955 0.159145 -0.478207
2009-05-25 08:50:39 51°13.622 2°48.079 -999 0.02883 0.15524 -0.443383
2009-05-25 08:51:39 51°13.602 2°48.06 -999 0.027698 0.149087 -0.443383
2009-05-25 08:52:40 51°13.582 2°48.04 -999 0.027698 0.149099 -0.443383
2009-05-25 08:53:39 51°13.563 2°48.019 -999 0.027286 0.146873 -0.443383
2009-05-25 08:54:39 51°13.542 2°47.998 -999 0.028212 0.151885 -0.443383
2009-05-25 08:55:39 51°13.522 2°47.977 -999 0.030579 0.16475 -0.443383
2009-05-25 08:56:39 51°13.504 2°47.961 -999 0.03027 0.163081 -0.443383
2009-05-25 08:57:39 51°13.505 2°47.968 -999 0.028007 0.150773 -0.443383
2009-05-25 08:58:39 51°13.516 2°47.981 -999 0.026154 0.140744 -0.408559
2009-05-25 08:59:39 51°13.535 2°48.006 -999 0.024816 0.133588 -0.408559
2009-05-25 09:00:39 51°13.553 2°48.045 -999 0.024611 0.13251 -0.408559
2009-05-25 09:01:39 51°13.569 2°48.088 -999 0.026875 0.144718 -0.408559
2009-05-25 09:02:39 51°13.606 2°48.178 -999 0.025331 0.136393 -0.408559
2009-05-25 09:03:39 51°13.665 2°48.315 -999 0.024611 0.132516 -0.373735
2009-05-25 09:04:39 51°13.737 2°48.466 -999 0.024302 0.130875 -0.408559
2009-05-25 09:05:39 51°13.798 2°48.632 -999 0.024816 0.133657 -0.373735
2009-05-25 09:06:39 51°13.855 2°48.803 -999 0.024302 0.130896 -0.373735
2009-05-25 09:07:39 51°13.911 2°48.973 -999 0.024096 0.129791 -0.373735
2009-05-25 09:08:39 51°13.966 2°49.143 -999 0.024199 0.130365 -0.373735
2009-05-25 09:09:39 51°14.023 2°49.313 -999 0.024611 0.132577 -0.373735
2009-05-25 09:10:39 51°14.081 2°49.481 -999 0.024302 0.130928 -0.373735
2009-05-25 09:11:39 51°14.143 2°49.647 -999 0.024508 0.132025 -0.373735
2009-05-25 09:12:39 51°14.204 2°49.815 -999 0.025125 0.135351 -0.338911
2009-05-25 09:13:39 51°14.265 2°49.981 -999 0.024096 0.129829 -0.338911
2009-05-25 09:14:39 51°14.325 2°50.149 -999 0.025434 0.13703 -0.338911
2009-05-25 09:15:39 51°14.386 2°50.319 -999 0.02564 0.138137 -0.338911
2009-05-25 09:16:39 51°14.445 2°50.488 -999 0.024714 0.133152 -0.338911
2009-05-25 09:17:39 51°14.503 2°50.659 -999 0.024405 0.131498 -0.338911
2009-05-25 09:18:40 51°14.546 2°50.783 -999 0.026051 0.140366 -0.338911
2009-05-25 09:19:39 51°14.586 2°50.921 -999 0.024611 0.132596 -0.304087
2009-05-25 09:20:39 51°14.605 2°51.091 -999 0.024919 0.134279 -0.304087
2009-05-25 09:21:39 51°14.619 2°51.278 -999 0.025331 0.1365 -0.304087
2009-05-25 09:22:39 51°14.637 2°51.467 -999 0.024611 0.132624 -0.304087
2009-05-25 09:23:40 51°14.654 2°51.66 -999 0.025331 0.136509 -0.304087
2009-05-25 09:24:39 51°14.673 2°51.852 -999 0.024919 0.134307 -0.304087
2009-05-25 09:25:39 51°14.693 2°52.05 -999 0.025125 0.135409 -0.304087
2009-05-25 09:26:39 51°14.711 2°52.25 -999 0.025228 0.135974 -0.304087
2009-05-25 09:27:39 51°14.73 2°52.45 -999 0.02564 0.138198 -0.304087
2009-05-25 09:28:39 51°14.749 2°52.651 -999 0.025331 0.136529 -0.304087
2009-05-25 09:29:39 51°14.767 2°52.835 -999 0.026463 0.142662 -0.304087
2009-05-25 09:30:39 51°14.784 2°52.989 -999 0.025846 0.139338 -0.304087
2009-05-25 09:31:39 51°14.8 2°53.168 -999 0.025125 0.135453 -0.269263
2009-05-25 09:32:39 51°14.818 2°53.351 -999 0.025948 0.139898 -0.269263
2009-05-25 09:33:39 51°14.836 2°53.535 -999 0.025537 0.137677 -0.269263
2009-05-25 09:34:39 51°14.843 2°53.723 -999 0.025743 0.138815 -0.269263
2009-05-25 09:35:39 51°14.828 2°53.915 -999 0.02636 0.142138 -0.269263
2009-05-25 09:36:39 51°14.776 2°54.09 -999 0.026772 0.144403 -0.269263
2009-05-25 09:37:39 51°14.715 2°54.262 -999 0.025434 0.137149 -0.269263
2009-05-25 09:38:39 51°14.656 2°54.436 -999 0.025022 0.134967 -0.234439
2009-05-25 09:39:39 51°14.583 2°54.599 -999 0.025331 0.136638 -0.234439
2009-05-25 09:40:39 51°14.505 2°54.765 -999 0.026154 0.141082 -0.234439
2009-05-25 09:41:39 51°14.424 2°54.93 -999 0.02564 0.138311 -0.234439
2009-05-25 09:42:39 51°14.343 2°55.111 -999 0.025434 0.137198 -0.234439
2009-05-25 09:43:39 51°14.246 2°55.285 -999 0.025125 0.135566 -0.234439
2009-05-25 09:44:39 51°14.134 2°55.428 -999 0.025743 0.138899 -0.234439
2009-05-25 09:45:39 51°14.02 2°55.513 -999 0.025331 0.136694 -0.234439
2009-05-25 09:46:39 51°13.928 2°55.573 -999 0.026051 0.140586 -0.234439
2009-05-25 09:47:39 51°13.836 2°55.634 -999 0.025948 0.140022 -0.234439
2009-05-25 09:48:39 51°13.762 2°55.7 -999 0.02636 0.142262 -0.234439
2009-05-25 09:49:39 51°13.716 2°55.795 -999 0.026154 0.14113 -0.234439
2009-05-25 09:50:39 51°13.682 2°55.891 -999 0.026051 0.140586 -0.199615
2009-05-25 09:51:39 51°13.666 2°55.949 -999 0.026051 0.140583 -0.234439
2009-05-25 09:52:39 51°13.662 2°55.958 -999 0.025846 0.139487 -0.199615
2009-05-25 09:53:39 51°13.663 2°55.959 -999 0.02564 0.13837 -0.199615
2009-05-25 09:54:39 51°13.663 2°55.959 -999 0.02564 0.13837 -0.199615
2009-05-25 09:55:39 51°13.663 2°55.959 -999 0.02564 0.13837 -0.199615
2009-05-25 09:56:39 51°13.664 2°55.959 -999 0.025434 0.137268 -0.199615
2009-05-25 09:57:39 51°13.664 2°55.959 -999 0.025434 0.137272 -0.199615
2009-05-25 09:58:39 51°13.664 2°55.959 -999 0.032637 0.176565 -0.164791
2009-05-25 09:59:39 51°13.663 2°55.959 -999 0.032637 0.176784 -0.164791
2009-05-25 10:00:39 51°13.664 2°55.958 -999 0.032637 0.176814 -0.164791
2009-05-25 10:01:39 51°13.664 2°55.959 -999 0.03274 0.177347 -0.164791
2009-05-25 10:02:39 51°13.664 2°55.959 -999 0.032843 0.177894 -0.164791
2009-05-25 10:03:39 51°13.664 2°55.959 -999 0.032843 0.177882 -0.164791
2009-05-25 10:04:39 51°13.664 2°55.959 -999 0.032843 0.177867 -0.129967
2009-05-25 10:05:39 51°13.664 2°55.959 -999 0.032946 0.178418 -0.164791
2009-05-25 10:06:40 51°13.664 2°55.959 -999 0.032843 0.177846 -0.129967
2009-05-25 10:07:40 51°13.664 2°55.958 -999 0.032946 0.178399 -0.164791
2009-05-25 10:08:39 51°13.664 2°55.959 -999 0.032946 0.17839 -0.129967
2009-05-25 10:09:39 51°13.664 2°55.959 -999 0.032843 0.177816 -0.129967
2009-05-25 10:10:40 51°13.664 2°55.96 -999 0.03274 0.177244 -0.129967
2009-05-25 10:11:40 51°13.664 2°55.959 -999 0.032637 0.176673 -0.129967
2009-05-25 10:12:39 51°13.664 2°55.959 -999 0.032534 0.176102 -0.129967
2009-05-25 10:13:39 51°13.661 2°55.96 -999 0.032432 0.175531 -0.129967
2009-05-25 10:14:39 51°13.662 2°55.959 -999 0.032637 0.176652 -0.095143
2009-05-25 10:15:39 51°13.662 2°55.959 -999 0.032637 0.176646 -0.129967
2009-05-25 10:16:40 51°13.662 2°55.959 -999 0.032329 0.174949 -0.129967
2009-05-25 10:17:39 51°13.662 2°55.959 -999 0.032432 0.175504 -0.129967
2009-05-25 10:18:39 51°13.662 2°55.959 -999 0.032534 0.17606 -0.095143
2009-05-25 10:19:39 51°13.663 2°55.959 -999 0.032534 0.176054 -0.095143
2009-05-25 10:20:40 51°13.663 2°55.958 -999 0.032534 0.176048 -0.095143
2009-05-25 10:21:40 51°13.662 2°55.958 -999 0.032534 0.176039 -0.095143
2009-05-25 10:22:39 51°13.662 2°55.958 -999 0.032534 0.176033 -0.095143
2009-05-25 10:23:39 51°13.662 2°55.958 -999 0.032534 0.176027 -0.095143
2009-05-25 10:24:39 51°13.662 2°55.959 -999 0.032637 0.17658 -0.095143
2009-05-25 10:25:39 51°13.662 2°55.959 -999 0.032534 0.17601 -0.095143
2009-05-25 10:26:39 51°13.663 2°55.959 -999 0.032432 0.175439 -0.095143
2009-05-25 10:27:40 51°13.663 2°55.959 -999 0.032329 0.174869 -0.095143
2009-05-25 10:28:39 51°13.664 2°55.959 -999 0.032226 0.174295 -0.095143
2009-05-25 10:29:40 51°13.662 2°55.959 -999 0.032226 0.174289 -0.095143
2009-05-25 10:30:39 51°13.663 2°55.959 -999 0.032329 0.174845 -0.095143
2009-05-25 10:31:40 51°13.664 2°55.959 -999 0.032329 0.174839 -0.095143
2009-05-25 10:32:40 51°13.664 2°55.959 -999 0.032432 0.175394 -0.095143
2009-05-25 10:33:40 51°13.666 2°55.958 -999 0.032534 0.17595 -0.095143
2009-05-25 10:34:40 51°13.664 2°55.959 -999 0.032534 0.175944 -0.095143
2009-05-25 10:35:39 51°13.665 2°55.958 -999 0.032432 0.175377 -0.060319
2009-05-25 10:36:40 51°13.664 2°55.959 -999 0.032637 0.176493 -0.095143
2009-05-25 10:37:39 51°13.662 2°55.959 -999 0.032637 0.176487 -0.095143
2009-05-25 10:38:40 51°13.663 2°55.959 -999 0.03274 0.177043 -0.060319
2009-05-25 10:39:40 51°13.662 2°55.959 -999 0.032843 0.177599 -0.060319
2009-05-25 10:40:39 51°13.662 2°55.959 -999 0.033049 0.178719 -0.095143
2009-05-25 10:41:39 51°13.66 2°55.96 -999 0.032843 0.177587 -0.060319
2009-05-25 10:42:39 51°13.661 2°55.959 -999 0.032843 0.17758 -0.060319
2009-05-25 10:43:39 51°13.662 2°55.959 -999 0.033049 0.178698 -0.060319
2009-05-25 10:44:39 51°13.662 2°55.959 -999 0.033049 0.178692 -0.060319
2009-05-25 10:45:39 51°13.662 2°55.959 -999 0.033049 0.178686 -0.060319
2009-05-25 10:46:39 51°13.662 2°55.959 -999 0.033049 0.178683 -0.060319
2009-05-25 10:47:39 51°13.662 2°55.959 -999 0.033255 0.179797 -0.060319
2009-05-25 10:48:39 51°13.662 2°55.958 -999 0.033152 0.179229 -0.060319
2009-05-25 10:49:39 51°13.663 2°55.959 -999 0.033152 0.179223 -0.060319
2009-05-25 10:50:39 51°13.663 2°55.958 -999 0.032843 0.177523 -0.060319
2009-05-25 10:51:40 51°13.663 2°55.959 -999 0.032843 0.177517 -0.060319
2009-05-25 10:52:40 51°13.662 2°55.958 -999 0.03274 0.176947 -0.060319
2009-05-25 10:53:40 51°13.663 2°55.958 -999 0.032946 0.178067 -0.060319
2009-05-25 10:54:40 51°13.663 2°55.958 -999 0.032946 0.178061 -0.060319
2009-05-25 10:55:40 51°13.663 2°55.959 -999 0.032843 0.17749 -0.060319
2009-05-25 10:56:40 51°13.663 2°55.959 -999 0.03274 0.176923 -0.060319
2009-05-25 10:57:40 51°13.663 2°55.959 -999 0.03274 0.176917 -0.060319
2009-05-25 10:58:40 51°13.663 2°55.959 -999 0.032843 0.177472 -0.060319
2009-05-25 10:59:39 51°13.661 2°55.958 -999 0.033049 0.178592 -0.060319
2009-05-25 11:00:39 51°13.661 2°55.958 -999 0.032843 0.177457 -0.060319
2009-05-25 11:01:40 51°13.662 2°55.958 -999 0.03274 0.176887 -0.060319
2009-05-25 11:02:39 51°13.662 2°55.958 -999 0.03274 0.176884 -0.060319
2009-05-25 11:03:40 51°13.662 2°55.958 -999 0.03274 0.176875 -0.060319
2009-05-25 11:04:40 51°13.662 2°55.958 -999 0.032843 0.177433 -0.060319
2009-05-25 11:05:39 51°13.663 2°55.959 -999 0.032843 0.177424 -0.025495
2009-05-25 11:06:40 51°13.663 2°55.959 -999 0.032534 0.17573 -0.060319
2009-05-25 11:07:39 51°13.663 2°55.959 -999 0.032637 0.176284 -0.060319
2009-05-25 11:08:40 51°13.663 2°55.959 -999 0.032637 0.176275 -0.060319
2009-05-25 11:09:40 51°13.663 2°55.959 -999 0.032637 0.176269 -0.060319
2009-05-25 11:10:40 51°13.663 2°55.959 -999 0.03274 0.176824 -0.025495
2009-05-25 11:11:40 51°13.663 2°55.959 -999 0.032329 0.174567 -0.025495
2009-05-25 11:12:40 51°13.664 2°55.959 -999 0.032226 0.173998 -0.060319
2009-05-25 11:13:40 51°13.664 2°55.959 -999 0.032226 0.173989 -0.025495
2009-05-25 11:14:39 51°13.664 2°55.958 -999 0.031917 0.1723 -0.025495
2009-05-25 11:15:40 51°13.663 2°55.959 -999 0.032329 0.174538 -0.025495
2009-05-25 11:16:40 51°13.663 2°55.959 -999 0.032329 0.174532 -0.060319
2009-05-25 11:17:40 51°13.663 2°55.958 -999 0.032432 0.175089 -0.025495
2009-05-25 11:18:40 51°13.663 2°55.957 -999 0.032534 0.175643 -0.025495
2009-05-25 11:19:40 51°13.662 2°55.959 -999 0.032329 0.174511 -0.025495
2009-05-25 11:20:40 51°13.662 2°55.959 -999 0.032226 0.173939 -0.025495
2009-05-25 11:21:40 51°13.669 2°55.939 -999 0.031814 0.171688 -0.025495
2009-05-25 11:22:43 51°13.686 2°55.879 -999 0.031814 0.171682 -0.025495
2009-05-25 11:23:43 51°13.71 2°55.805 -999 0.031505 0.169987 -0.060319
2009-05-25 11:24:43 51°13.746 2°55.732 -999 0.030888 0.166619 -0.025495
2009-05-25 11:25:43 51°13.793 2°55.673 -999 0.031197 0.168293 -0.025495
2009-05-25 11:26:42 51°13.844 2°55.643 -999 0.031094 0.167728 -0.025495
2009-05-25 11:27:43 51°13.893 2°55.637 -999 0.031402 0.169396 -0.025495
2009-05-25 11:28:41 51°13.92 2°55.65 -999 0.029756 0.160438 -0.025495
2009-05-25 11:29:39 51°13.918 2°55.623 -999 0.028418 0.153153 -0.025495
2009-05-25 11:30:40 51°13.947 2°55.566 -999 0.030888 0.166586 -0.025495
2009-05-25 11:31:40 51°14.034 2°55.489 -999 0.029344 0.15818 -0.025495
2009-05-25 11:32:39 51°14.145 2°55.398 -999 0.028727 0.154815 -0.025495
2009-05-25 11:33:40 51°14.255 2°55.269 -999 0.02708 0.14585 -0.025495
2009-05-25 11:34:40 51°14.345 2°55.083 -999 0.026463 0.142523 -0.025495
2009-05-25 11:35:40 51°14.451 2°54.904 -999 0.026977 0.145318 -0.025495
2009-05-25 11:36:40 51°14.56 2°54.717 -999 0.026669 0.143663 -0.025495
2009-05-25 11:37:40 51°14.666 2°54.492 -999 0.025846 0.139219 -0.025495
2009-05-25 11:38:40 51°14.758 2°54.242 -999 0.025331 0.136469 -0.025495
2009-05-25 11:39:40 51°14.824 2°53.973 -999 0.026154 0.140903 -0.025495
2009-05-25 11:40:40 51°14.863 2°53.689 -999 0.026257 0.141447 -0.025495
2009-05-25 11:41:40 51°14.886 2°53.405 -999 0.025434 0.137059 -0.025495
2009-05-25 11:42:40 51°14.914 2°53.121 -999 0.026669 0.143727 -0.025495
2009-05-25 11:43:40 51°14.938 2°52.835 -999 0.026772 0.144388 -0.025495
2009-05-25 11:44:40 51°14.95 2°52.547 -999 0.026566 0.143338 -0.025495
2009-05-25 11:45:39 51°14.957 2°52.267 -999 0.026669 0.143948 -0.025495
2009-05-25 11:46:40 51°14.965 2°51.978 -999 0.027595 0.149045 -0.060319
2009-05-25 11:47:40 51°14.947 2°51.696 -999 0.026978 0.145755 -0.025495
2009-05-25 11:48:40 51°14.919 2°51.42 -999 0.029344 0.158668 -0.025495
2009-05-25 11:49:40 51°14.916 2°51.138 -999 0.028933 0.156384 -0.025495
2009-05-25 11:50:40 51°14.885 2°50.897 -999 0.027183 0.146889 -0.025495
2009-05-25 11:51:40 51°14.821 2°50.838 -999 0.026257 0.141874 -0.025495
2009-05-25 11:52:40 51°14.773 2°50.865 -999 0.025948 0.140165 -0.025495
2009-05-25 11:53:40 51°14.734 2°50.909 -999 0.02564 0.138511 -0.025495
2009-05-25 11:54:39 51°14.689 2°50.944 -999 0.025434 0.137371 -0.025495
2009-05-25 11:55:40 51°14.645 2°50.907 -999 0.025743 0.139068 -0.025495
2009-05-25 11:56:40 51°14.6 2°50.844 -999 0.025537 0.137948 -0.025495
2009-05-25 11:57:40 51°14.556 2°50.777 -999 0.025434 0.137378 -0.025495
2009-05-25 11:58:40 51°14.519 2°50.706 -999 0.025948 0.140151 -0.025495
2009-05-25 11:59:40 51°14.489 2°50.628 -999 0.025948 0.140184 -0.025495
2009-05-25 12:00:40 51°14.46 2°50.547 -999 0.026875 0.145231 -0.025495
2009-05-25 12:01:40 51°14.428 2°50.469 -999 0.02564 0.138559 -0.025495
2009-05-25 12:02:40 51°14.394 2°50.389 -999 0.026154 0.141349 -0.025495
2009-05-25 12:03:39 51°14.361 2°50.315 -999 0.026051 0.140866 -0.025495
2009-05-25 12:04:40 51°14.328 2°50.239 -999 0.025846 0.139818 -0.025495
2009-05-25 12:05:40 51°14.297 2°50.163 -999 0.02636 0.142495 -0.025495
2009-05-25 12:06:40 51°14.267 2°50.085 -999 0.026669 0.14426 -0.025495
2009-05-25 12:07:40 51°14.238 2°50.009 -999 0.02564 0.138628 -0.025495
2009-05-25 12:08:39 51°14.213 2°49.941 -999 0.025846 0.13973 -0.025495
2009-05-25 12:09:40 51°14.187 2°49.872 -999 0.02636 0.142509 -0.025495
2009-05-25 12:10:39 51°14.161 2°49.806 -999 0.02564 0.1386 -0.025495
2009-05-25 12:11:40 51°14.136 2°49.736 -999 0.026154 0.141375 -0.025495
2009-05-25 12:12:40 51°14.11 2°49.667 -999 0.026463 0.143074 -0.025495
2009-05-25 12:13:40 51°14.085 2°49.597 -999 0.026257 0.141968 -0.025495
2009-05-25 12:14:40 51°14.061 2°49.526 -999 0.026051 0.140824 -0.025495
2009-05-25 12:15:40 51°14.037 2°49.454 -999 0.026154 0.141401 -0.025495
2009-05-25 12:16:40 51°14.013 2°49.384 -999 0.02564 0.138593 -0.025495
2009-05-25 12:17:40 51°13.99 2°49.315 -999 0.026154 0.141366 0.009329
2009-05-25 12:18:40 51°13.965 2°49.248 -999 0.025743 0.139247 -0.025495
2009-05-25 12:19:39 51°13.941 2°49.183 -999 0.025948 0.140285 -0.025495
2009-05-25 12:20:40 51°13.917 2°49.115 -999 0.026566 0.143649 -0.025495
2009-05-25 12:21:40 51°13.892 2°49.048 -999 0.025846 0.139707 -0.025495
2009-05-25 12:22:40 51°13.867 2°48.982 -999 0.025743 0.139185 -0.025495
2009-05-25 12:23:39 51°13.843 2°48.916 -999 0.025537 0.138052 -0.025495
2009-05-25 12:24:40 51°13.817 2°48.846 -999 0.026051 0.140908 -0.025495
2009-05-25 12:25:40 51°13.795 2°48.775 -999 0.025846 0.139719 -0.025495
2009-05-25 12:26:40 51°13.788 2°48.697 -999 0.026051 0.140817 -0.025495
2009-05-25 12:27:40 51°13.802 2°48.618 -999 0.026051 0.140806 -0.025495
2009-05-25 12:28:40 51°13.841 2°48.552 -999 0.025331 0.136901 0.009329
2009-05-25 12:29:40 51°13.889 2°48.533 -999 0.026051 0.140787 -0.025495
2009-05-25 12:30:39 51°13.932 2°48.535 -999 0.02564 0.138534 -0.025495
2009-05-25 12:31:40 51°13.97 2°48.549 -999 0.02564 0.138509 0.009329
2009-05-25 12:32:40 51°14.003 2°48.569 -999 0.025948 0.140191 -0.025495
2009-05-25 12:33:40 51°14.034 2°48.593 -999 0.025948 0.140202 0.009329
2009-05-25 12:34:40 51°14.062 2°48.621 -999 0.02564 0.138495 -0.025495
2009-05-25 12:35:40 51°14.095 2°48.657 -999 0.024816 0.134028 0.009329
2009-05-25 12:36:40 51°14.15 2°48.737 -999 0.033255 0.180011 -0.025495
2009-05-25 12:37:40 51°14.191 2°48.883 -999 0.031711 0.171545 -0.025495
2009-05-25 12:38:40 51°14.234 2°49.05 -999 0.030682 0.165901 -0.025495
2009-05-25 12:39:39 51°14.277 2°49.22 -999 0.029653 0.16025 -0.025495
2009-05-25 12:40:40 51°14.321 2°49.397 -999 0.029756 0.160782 0.009329
2009-05-25 12:41:40 51°14.363 2°49.572 -999 0.029962 0.161883 -0.025495
2009-05-25 12:42:40 51°14.403 2°49.747 -999 0.028933 0.156287 -0.025495
2009-05-25 12:43:40 51°14.455 2°49.912 -999 0.028933 0.156271 -0.025495
2009-05-25 12:44:40 51°14.534 2°50.043 -999 0.028007 0.151204 0.009329
2009-05-25 12:45:40 51°14.594 2°50.199 -999 0.027801 0.150076 0.009329
2009-05-25 12:46:40 51°14.616 2°50.373 -999 0.028624 0.154555 0.009329
2009-05-25 12:47:40 51°14.633 2°50.554 -999 0.028109 0.151738 0.009329
2009-05-25 12:48:39 51°14.65 2°50.733 -999 0.029036 0.156615 0.009329
2009-05-25 12:49:40 51°14.666 2°50.916 -999 0.027698 0.149445 0.009329
2009-05-25 12:50:40 51°14.681 2°51.096 -999 0.027286 0.147228 -0.025495
2009-05-25 12:51:40 51°14.697 2°51.277 -999 0.02708 0.146113 -0.025495
2009-05-25 12:52:40 51°14.714 2°51.458 -999 0.027286 0.147252 0.009329
2009-05-25 12:53:39 51°14.74 2°51.633 -999 0.026875 0.145027 0.009329
2009-05-25 12:54:40 51°14.758 2°51.816 -999 0.026875 0.145 0.009329
2009-05-25 12:55:39 51°14.774 2°51.993 -999 0.026875 0.145022 0.009329
2009-05-25 12:56:39 51°14.791 2°52.174 -999 0.026566 0.143388 -0.025495
2009-05-25 12:57:39 51°14.808 2°52.353 -999 0.026978 0.145577 0.009329
2009-05-25 12:58:39 51°14.824 2°52.53 -999 0.026463 0.142782 0.009329
2009-05-25 12:59:40 51°14.838 2°52.709 -999 0.026669 0.143888 0.009329
2009-05-25 13:00:40 51°14.856 2°52.884 -999 0.026463 0.142746 0.009329
2009-05-25 13:01:40 51°14.873 2°53.057 -999 0.026669 0.143867 0.009329
2009-05-25 13:02:39 51°14.885 2°53.221 -999 0.026463 0.142737 0.009329
2009-05-25 13:03:40 51°14.901 2°53.386 -999 0.026566 0.143284 0.009329
2009-05-25 13:04:40 51°14.912 2°53.538 -999 0.027286 0.147196 0.009329
2009-05-25 13:05:40 51°14.914 2°53.671 -999 0.026566 0.143301 0.009329
2009-05-25 13:06:40 51°14.896 2°53.848 -999 0.026051 0.140512 0.009329
2009-05-25 13:07:39 51°14.863 2°54.038 -999 0.025743 0.138819 0.009329
2009-05-25 13:08:40 51°14.796 2°54.215 -999 0.026978 0.145498 -0.025495
2009-05-25 13:09:39 51°14.72 2°54.38 -999 0.026875 0.144924 0.009329
2009-05-25 13:10:40 51°14.636 2°54.539 -999 0.026463 0.142683 0.009329
2009-05-25 13:11:39 51°14.552 2°54.687 -999 0.026566 0.143218 0.009329
2009-05-25 13:12:40 51°14.472 2°54.855 -999 0.025948 0.139868 0.009329
2009-05-25 13:13:39 51°14.391 2°55.012 -999 0.026257 0.141519 0.009329
2009-05-25 13:14:40 51°14.306 2°55.159 -999 0.025948 0.139827 0.009329
2009-05-25 13:15:39 51°14.229 2°55.308 -999 0.025846 0.13926 -0.025495
2009-05-25 13:16:39 51°14.133 2°55.411 -999 0.038606 0.208839 0.044153
2009-05-25 13:17:40 51°14.023 2°55.491 -999 0.030373 0.163805 0.009329
2009-05-25 13:18:40 51°13.919 2°55.56 -999 0.025846 0.139206 0.009329
2009-05-25 13:19:40 51°13.832 2°55.621 -999 0.025434 0.136963 0.009329
2009-05-25 13:20:39 51°13.766 2°55.684 -999 0.025228 0.135846 0.009329
2009-05-25 13:21:40 51°13.725 2°55.774 -999 0.025022 0.134729 0.009329
2009-05-25 13:22:40 51°13.697 2°55.85 -999 0.024816 0.133616 0.009329
2009-05-25 13:23:40 51°13.675 2°55.911 -999 0.024714 0.133048 0.009329
2009-05-25 13:24:40 51°13.667 2°55.947 -999 0.025125 0.135228 0.009329
2009-05-25 13:25:40 51°13.665 2°55.951 -999 0.024611 0.132449 0.009329
2009-05-25 13:26:40 51°13.662 2°55.956 -999 0.024611 0.132424 0.009329